createdAt,value
2018-12-05T00:01:29.039Z,4.47
2018-12-05T00:06:35.295Z,4.47
2018-12-05T00:11:39.782Z,4.36
2018-12-05T00:16:44.511Z,4.40
2018-12-05T00:21:48.734Z,4.36
2018-12-05T00:26:52.937Z,4.34
2018-12-05T00:31:57.143Z,4.35
2018-12-05T00:37:01.389Z,4.39
2018-12-05T00:42:05.715Z,4.42
2018-12-05T00:47:10.155Z,4.41
2018-12-05T00:52:14.472Z,4.38
2018-12-05T00:57:19.765Z,4.28
2018-12-05T01:02:24.892Z,4.18
2018-12-05T01:07:29.242Z,4.13
2018-12-05T01:12:34.048Z,4.09
2018-12-05T01:17:38.387Z,4.03
2018-12-05T01:22:42.736Z,3.98
2018-12-05T01:27:47.202Z,4.04
2018-12-05T01:32:51.452Z,3.89
2018-12-05T01:37:55.652Z,3.78
2018-12-05T01:42:59.884Z,3.76
2018-12-05T01:48:04.193Z,3.84
2018-12-05T01:53:13.534Z,3.74
2018-12-05T01:58:17.769Z,3.68
2018-12-05T02:03:27.031Z,3.61
2018-12-05T02:08:31.163Z,3.48
2018-12-05T02:13:35.441Z,3.47
2018-12-05T02:18:39.733Z,3.43
2018-12-05T02:23:44.040Z,3.45
2018-12-05T02:28:48.257Z,3.48
2018-12-05T02:33:52.547Z,3.44
2018-12-05T02:38:56.838Z,3.39
2018-12-05T02:44:01.129Z,3.32
2018-12-05T02:49:05.712Z,3.35
2018-12-05T02:54:09.894Z,3.38
2018-12-05T02:59:14.206Z,3.34
2018-12-05T03:04:18.884Z,3.36
2018-12-05T03:09:23.137Z,3.27
2018-12-05T03:14:27.463Z,3.18
2018-12-05T03:19:31.972Z,3.22
2018-12-05T03:24:36.440Z,3.25
2018-12-05T03:29:40.588Z,3.26
2018-12-05T03:34:46.892Z,3.18
2018-12-05T03:39:51.296Z,3.10
2018-12-05T03:44:55.648Z,2.98
2018-12-05T03:50:03.634Z,2.97
2018-12-05T03:55:07.867Z,3.04
2018-12-05T04:00:12.315Z,3.01
2018-12-05T04:05:16.534Z,2.98
2018-12-05T04:10:21.077Z,3.02
2018-12-05T04:15:25.557Z,2.96
2018-12-05T04:20:29.767Z,2.96
2018-12-05T04:25:34.104Z,2.91
2018-12-05T04:30:38.246Z,2.96
2018-12-05T04:35:44.511Z,2.95
2018-12-05T04:40:49.225Z,2.95
2018-12-05T04:45:53.636Z,2.95
2018-12-05T04:50:58.132Z,2.99
2018-12-05T04:56:02.354Z,2.96
2018-12-05T05:01:06.935Z,2.86
2018-12-05T05:06:11.268Z,2.77
2018-12-05T05:11:15.452Z,2.79
2018-12-05T05:16:19.683Z,2.75
2018-12-05T05:21:23.919Z,2.76
2018-12-05T05:26:28.157Z,2.75
2018-12-05T05:31:33.336Z,2.79
2018-12-05T05:36:37.993Z,2.73
2018-12-05T05:41:42.386Z,2.64
2018-12-05T05:46:47.148Z,2.64
2018-12-05T05:51:51.399Z,2.64
2018-12-05T05:56:57.151Z,2.66
2018-12-05T06:02:01.813Z,2.68
2018-12-05T06:07:06.145Z,2.69
2018-12-05T06:12:12.033Z,2.67
2018-12-05T06:17:16.456Z,2.69
2018-12-05T06:22:20.871Z,2.62
2018-12-05T06:27:25.095Z,2.60
2018-12-05T06:32:29.355Z,2.50
2018-12-05T06:37:33.676Z,2.41
2018-12-05T06:42:38.021Z,2.43
2018-12-05T06:47:42.279Z,2.44
2018-12-05T06:52:46.493Z,2.47
2018-12-05T06:57:50.942Z,2.46
2018-12-05T07:02:55.453Z,2.40
2018-12-05T07:07:59.797Z,2.35
2018-12-05T07:13:04.988Z,2.29
2018-12-05T07:18:09.590Z,2.31
2018-12-05T07:23:13.808Z,2.36
2018-12-05T07:28:18.081Z,2.38
2018-12-05T07:33:22.394Z,2.42
2018-12-05T07:38:26.616Z,2.43
2018-12-05T07:43:30.965Z,2.48
2018-12-05T07:48:35.275Z,2.55
2018-12-05T07:53:39.634Z,2.62
2018-12-05T07:58:44.027Z,2.58
2018-12-05T08:03:50.157Z,2.62
2018-12-05T08:08:54.370Z,2.71
2018-12-05T08:13:58.644Z,2.79
2018-12-05T08:19:03.052Z,2.85
2018-12-05T08:24:07.230Z,2.92
2018-12-05T08:29:11.714Z,2.93
2018-12-05T08:34:15.999Z,2.97
2018-12-05T08:39:20.456Z,3.03
2018-12-05T08:44:24.662Z,3.04
2018-12-05T08:49:28.948Z,3.09
2018-12-05T08:54:33.293Z,3.13
2018-12-05T08:59:37.691Z,3.23
2018-12-05T09:04:46.940Z,3.35
2018-12-05T09:09:51.690Z,3.39
2018-12-05T09:14:56.372Z,3.41
2018-12-05T09:20:01.053Z,3.42
2018-12-05T09:25:05.874Z,3.49
2018-12-05T09:30:10.348Z,3.51
2018-12-05T09:35:14.715Z,3.57
2018-12-05T09:40:19.376Z,3.60
2018-12-05T09:45:23.746Z,3.70
2018-12-05T09:50:28.291Z,3.76
2018-12-05T09:55:32.627Z,3.85
2018-12-05T10:00:37.717Z,3.92
2018-12-05T10:05:47.231Z,4.01
2018-12-05T10:10:51.498Z,4.15
2018-12-05T10:15:55.750Z,4.26
2018-12-05T10:20:59.948Z,4.32
2018-12-05T10:26:05.304Z,4.41
2018-12-05T10:31:09.901Z,4.53
2018-12-05T10:36:14.808Z,4.66
2018-12-05T10:41:19.861Z,4.77
2018-12-05T10:46:25.057Z,4.95
2018-12-05T10:51:29.871Z,5.02
2018-12-05T10:56:34.044Z,5.05
2018-12-05T11:01:43.796Z,5.13
2018-12-05T11:06:53.211Z,5.27
2018-12-05T11:12:02.818Z,5.37
2018-12-05T11:17:12.422Z,5.47
2018-12-05T11:22:22.243Z,5.67
2018-12-05T11:27:27.178Z,5.75
2018-12-05T11:32:38.579Z,5.92
2018-12-05T11:37:42.725Z,6.14
2018-12-05T11:42:47.088Z,6.53
2018-12-05T11:47:51.394Z,7.05
2018-12-05T11:52:55.838Z,7.42
2018-12-05T11:58:02.239Z,7.51
2018-12-05T12:03:06.977Z,7.36
2018-12-05T12:08:13.692Z,7.17
2018-12-05T12:13:18.153Z,6.96
2018-12-05T12:18:22.412Z,6.92
2018-12-05T12:23:32.056Z,7.20
2018-12-05T12:28:36.169Z,7.23
2018-12-05T12:33:40.763Z,7.25
2018-12-05T12:38:45.001Z,7.13
2018-12-05T12:43:49.224Z,7.04
2018-12-05T12:48:53.606Z,6.98
2018-12-05T12:59:13.504Z,7.17
2018-12-05T13:04:17.709Z,7.14
2018-12-05T13:09:21.871Z,7.09
2018-12-05T13:14:26.166Z,6.92
2018-12-05T13:19:30.377Z,6.79
2018-12-05T13:24:34.597Z,6.68
2018-12-05T13:29:40.268Z,6.59
2018-12-05T13:34:45.201Z,6.51
2018-12-05T13:39:49.882Z,6.46
2018-12-05T13:44:54.320Z,6.42
2018-12-05T13:49:59.652Z,6.35
2018-12-05T13:55:04.232Z,6.33
2018-12-05T14:00:09.147Z,6.32
2018-12-05T14:05:13.571Z,6.25
2018-12-05T14:10:17.846Z,6.17
2018-12-05T14:15:28.270Z,6.08
2018-12-05T14:20:32.563Z,5.99
2018-12-05T14:25:36.970Z,5.93
2018-12-05T14:30:41.227Z,5.94
2018-12-05T14:35:45.496Z,5.84
2018-12-05T14:40:49.791Z,5.81
2018-12-05T14:45:53.993Z,5.72
2018-12-05T14:50:58.379Z,5.62
2018-12-05T14:56:02.609Z,5.55
2018-12-05T15:01:06.717Z,5.63
2018-12-05T15:06:11.684Z,5.63
2018-12-05T15:11:16.317Z,5.55
2018-12-05T15:16:20.785Z,5.52
2018-12-05T15:21:25.389Z,5.51
2018-12-05T15:26:29.857Z,5.43
2018-12-05T15:31:34.369Z,5.35
2018-12-05T15:36:39.017Z,5.39
2018-12-05T15:41:43.629Z,5.48
2018-12-05T15:46:47.837Z,5.45
2018-12-05T15:51:52.265Z,5.38
2018-12-05T15:56:56.441Z,5.33
2018-12-05T16:02:00.973Z,5.34
2018-12-05T16:07:05.381Z,5.28
2018-12-05T16:12:09.821Z,5.21
2018-12-05T16:17:14.415Z,5.21
2018-12-05T16:22:19.108Z,5.19
2018-12-05T16:27:23.493Z,5.16
2018-12-05T16:32:27.773Z,5.08
2018-12-05T16:37:32.253Z,4.97
2018-12-05T16:42:37.879Z,4.89
2018-12-05T16:47:42.296Z,5.03
2018-12-05T16:52:46.627Z,5.06
2018-12-05T16:57:50.862Z,5.09
2018-12-05T17:02:55.885Z,5.15
2018-12-05T17:08:00.259Z,5.19
2018-12-05T17:13:05.471Z,5.07
2018-12-05T17:18:09.902Z,5.05
2018-12-05T17:23:14.179Z,5.00
2018-12-05T17:28:18.534Z,4.88
2018-12-05T17:33:22.804Z,4.79
2018-12-05T17:38:27.102Z,4.75
2018-12-05T17:43:31.424Z,4.71
2018-12-05T17:48:35.684Z,4.69
2018-12-05T17:53:40.044Z,4.64
2018-12-05T17:58:44.322Z,4.57
2018-12-05T18:03:48.565Z,4.56
2018-12-05T18:08:52.859Z,4.57
2018-12-05T18:13:57.088Z,4.55
2018-12-05T18:19:01.455Z,4.56
2018-12-05T18:24:05.672Z,4.52
2018-12-05T18:29:09.984Z,4.54
2018-12-05T18:34:14.234Z,4.51
2018-12-05T18:39:18.451Z,4.51
2018-12-05T18:44:22.620Z,4.52
2018-12-05T18:49:27.342Z,4.50
2018-12-05T18:54:32.385Z,4.50
2018-12-05T19:04:52.885Z,4.54
2018-12-05T19:09:58.116Z,4.54
2018-12-05T19:15:02.420Z,4.47
2018-12-05T19:20:13.002Z,4.47
2018-12-05T19:25:18.657Z,4.46
2018-12-05T19:30:37.653Z,4.46
2018-12-05T19:35:47.110Z,4.49
2018-12-05T19:40:51.327Z,4.51
2018-12-05T19:45:55.694Z,4.52
2018-12-05T19:51:01.603Z,4.50
2018-12-05T19:56:05.817Z,4.47
2018-12-05T20:01:10.127Z,4.47
2018-12-05T20:06:14.489Z,4.51
2018-12-05T20:11:18.709Z,4.52
2018-12-05T20:16:23.121Z,4.56
2018-12-05T20:21:27.603Z,4.57
2018-12-05T20:26:32.135Z,4.54
2018-12-05T20:31:37.601Z,4.53
2018-12-05T20:36:41.963Z,4.51
2018-12-05T20:41:46.506Z,4.56
2018-12-05T20:46:51.677Z,4.56
2018-12-05T20:51:57.006Z,4.55
2018-12-05T20:57:01.361Z,4.56
2018-12-05T21:02:05.945Z,4.57
2018-12-05T21:07:10.386Z,4.56
2018-12-05T21:12:14.896Z,4.64
2018-12-05T21:17:19.641Z,4.70
2018-12-05T21:22:24.066Z,4.65
2018-12-05T21:27:28.446Z,4.64
2018-12-05T21:32:33.009Z,4.68
2018-12-05T21:37:37.446Z,4.62
2018-12-05T21:42:41.873Z,4.58
2018-12-05T21:47:46.323Z,4.58
2018-12-05T21:52:51.051Z,4.63
2018-12-05T21:57:55.235Z,4.63
2018-12-05T22:02:59.436Z,4.64
2018-12-05T22:08:03.561Z,4.65
2018-12-05T22:13:07.768Z,4.67
2018-12-05T22:18:11.931Z,4.76
2018-12-05T22:23:16.047Z,4.75
2018-12-05T22:28:20.133Z,4.79
2018-12-05T22:33:24.393Z,4.75
2018-12-05T22:38:28.557Z,4.84
2018-12-05T22:43:32.718Z,4.85
2018-12-05T22:48:36.769Z,4.88
2018-12-05T22:53:41.021Z,4.77
2018-12-05T22:58:45.177Z,4.80
2018-12-05T23:03:49.405Z,4.85
2018-12-05T23:08:53.521Z,4.88
2018-12-05T23:13:57.713Z,4.87
2018-12-05T23:19:01.894Z,4.85
2018-12-05T23:24:06.144Z,4.86
2018-12-05T23:29:10.425Z,4.91
2018-12-05T23:34:14.752Z,4.88
2018-12-05T23:39:18.939Z,4.87
2018-12-05T23:44:23.139Z,4.85
2018-12-05T23:49:27.289Z,4.87
2018-12-05T23:54:31.581Z,4.87
2018-12-05T23:59:35.829Z,4.87
